Time;durP1;ratioP1;P1;durP2;ratioP2;P2;SDS_P1;SDS_P2;PMS_P1;PMS_P2;Temp;Humidity;BMP_temperature;BMP_pressure;BME280_temperature;BME280_humidity;BME280_pressure;Samples;Min_cycle;Max_cycle;Signal;HPM_P1;HPM_P2
2022/08/25 00:02:04;;;;;;;3.10;2.10;;;;;;;24.27;79.45;101406.59;5007617;28;20117;-69
2022/08/25 00:04:29;;;;;;;2.40;1.77;;;;;;;24.09;80.48;101400.72;5012317;28;20045;-67
2022/08/25 00:06:55;;;;;;;2.67;1.30;;;;;;;24.08;81.06;101397.19;5002796;28;20037;-67
2022/08/25 00:09:24;;;;;;;4.85;1.50;;;;;;;24.06;80.98;101393.31;5004706;28;20034;-67
2022/08/25 00:11:51;;;;;;;2.92;1.67;;;;;;;23.97;81.47;101393.09;5007017;28;20072;-67
2022/08/25 00:14:23;;;;;;;2.05;1.50;;;;;;;23.98;81.68;101389.91;5011319;28;20088;-68
2022/08/25 00:16:49;;;;;;;2.72;1.60;;;;;;;23.84;81.79;101389.47;4993968;28;20128;-67
2022/08/25 00:19:18;;;;;;;5.10;1.42;;;;;;;23.90;82.11;101380.28;4994845;28;20548;-67
2022/08/25 00:21:44;;;;;;;5.05;1.55;;;;;;;23.87;82.59;101388.59;4995240;28;20040;-68
2022/08/25 00:24:13;;;;;;;1.50;1.35;;;;;;;23.84;82.47;101390.25;5006430;28;20044;-68
2022/08/25 00:26:42;;;;;;;3.17;1.30;;;;;;;23.94;82.22;101385.72;4994431;28;20041;-67
2022/08/25 00:29:10;;;;;;;3.95;1.65;;;;;;;23.91;82.67;101381.81;5012267;28;20041;-67
2022/08/25 00:31:36;;;;;;;4.50;1.58;;;;;;;23.93;82.54;101386.91;5009704;28;20089;-67
2022/08/25 00:34:05;;;;;;;1.73;1.42;;;;;;;23.62;84.01;101383.66;5011533;28;20034;-67
2022/08/25 00:36:30;;;;;;;2.85;1.40;;;;;;;23.78;83.55;101380.94;5011608;28;20371;-68
2022/08/25 00:38:56;;;;;;;4.25;1.80;;;;;;;23.90;82.71;101379.50;5012537;28;20036;-68
2022/08/25 00:41:23;;;;;;;3.03;1.80;;;;;;;23.83;83.22;101380.44;5006997;28;20045;-68
2022/08/25 00:43:57;;;;;;;1.75;1.35;;;;;;;23.78;83.30;101385.66;5006515;28;20026;-68
2022/08/25 00:46:29;;;;;;;2.50;1.60;;;;;;;23.91;82.86;101372.78;5011715;28;20487;-68
2022/08/25 00:48:59;;;;;;;1.27;1.17;;;;;;;24.10;81.95;101378.25;5002446;28;20076;-68
2022/08/25 00:51:53;;;;;;;2.33;1.50;;;;;;;23.96;82.27;101377.81;5002477;28;20034;-68
2022/08/25 00:54:21;;;;;;;1.77;1.38;;;;;;;23.76;83.20;101382.56;4992225;28;20114;-68
2022/08/25 00:56:48;;;;;;;3.15;1.42;;;;;;;23.95;82.48;101382.53;5007369;28;20037;-67
2022/08/25 00:59:15;;;;;;;3.38;2.05;;;;;;;23.93;82.51;101389.66;5011634;28;20057;-68
2022/08/25 01:01:41;;;;;;;2.70;1.65;;;;;;;23.86;82.53;101387.06;5018387;28;20076;-67
2022/08/25 01:04:06;;;;;;;1.83;1.52;;;;;;;23.89;83.00;101380.69;4992464;28;20041;-68
2022/08/25 01:06:35;;;;;;;3.13;1.77;;;;;;;23.80;82.80;101386.81;5009818;28;20037;-68
2022/08/25 01:09:00;;;;;;;2.67;1.52;;;;;;;23.70;83.41;101385.06;5012022;28;20053;-67
2022/08/25 01:11:26;;;;;;;2.38;1.55;;;;;;;23.44;84.28;101382.50;5012159;28;20042;-68
2022/08/25 01:13:55;;;;;;;2.38;1.60;;;;;;;23.51;84.18;101387.81;5012028;28;20025;-68
2022/08/25 01:16:22;;;;;;;3.58;1.60;;;;;;;23.52;84.21;101379.16;5004375;28;20076;-67
2022/08/25 01:18:59;;;;;;;2.38;1.70;;;;;;;23.51;84.14;101376.81;5011776;28;20026;-67
2022/08/25 01:21:27;;;;;;;3.70;1.52;;;;;;;23.32;85.23;101380.38;5011697;28;20117;-68
2022/08/25 01:23:56;;;;;;;2.78;1.60;;;;;;;23.37;85.49;101383.41;5004908;28;20034;-67
2022/08/25 01:26:27;;;;;;;4.00;1.83;;;;;;;23.36;85.01;101378.31;5008627;28;20045;-67
2022/08/25 01:31:38;;;;;;;5.43;1.70;;;;;;;23.43;85.33;101378.97;5011051;28;20127;-67
2022/08/25 01:34:06;;;;;;;3.15;1.50;;;;;;;23.27;85.73;101385.13;4991180;28;20116;-67
2022/08/25 01:36:32;;;;;;;2.38;1.73;;;;;;;23.39;85.25;101377.47;5010557;28;20030;-67
2022/08/25 01:38:58;;;;;;;3.58;1.80;;;;;;;23.31;85.29;101379.59;5012092;28;20030;-67
2022/08/25 01:41:33;;;;;;;5.93;1.77;;;;;;;23.40;85.42;101384.53;5012031;28;20034;-67
2022/08/25 01:43:59;;;;;;;3.22;1.70;;;;;;;23.36;85.36;101379.13;5004708;28;20037;-67
2022/08/25 01:46:25;;;;;;;3.90;1.77;;;;;;;23.55;84.70;101383.03;5010315;28;20116;-67
2022/08/25 01:48:51;;;;;;;4.35;1.63;;;;;;;23.45;84.68;101384.03;4993908;28;20125;-67
2022/08/25 01:51:20;;;;;;;2.00;1.42;;;;;;;23.23;85.88;101380.91;5007977;28;20179;-67
2022/08/25 01:53:45;;;;;;;3.38;1.65;;;;;;;23.10;86.57;101385.47;5010606;28;20038;-68
2022/08/25 01:56:14;;;;;;;2.58;1.83;;;;;;;23.23;85.99;101386.41;5002108;28;20052;-67
2022/08/25 01:58:44;;;;;;;2.78;1.67;;;;;;;23.26;86.48;101388.31;5010901;28;20062;-67
2022/08/25 02:01:14;;;;;;;3.22;1.42;;;;;;;23.21;86.01;101384.06;5011415;28;20026;-67
2022/08/25 02:03:42;;;;;;;1.92;1.63;;;;;;;23.11;86.83;101387.81;5006506;28;20041;-68
2022/08/25 02:06:09;;;;;;;2.15;1.50;;;;;;;23.10;87.17;101391.75;5006073;28;20049;-67
2022/08/25 02:08:35;;;;;;;1.75;1.25;;;;;;;23.04;86.74;101382.44;5009888;28;20038;-67
2022/08/25 02:11:01;;;;;;;2.83;1.42;;;;;;;23.11;87.03;101389.78;5010425;28;20033;-67
2022/08/25 02:13:26;;;;;;;2.55;1.70;;;;;;;23.01;87.28;101388.81;4989871;28;20036;-67
2022/08/25 02:15:55;;;;;;;2.67;1.63;;;;;;;23.06;87.08;101388.31;5010237;28;20037;-67
2022/08/25 02:18:21;;;;;;;2.58;1.70;;;;;;;23.04;87.26;101393.44;5007018;28;20107;-67
2022/08/25 02:20:47;;;;;;;3.42;2.10;;;;;;;23.20;86.14;101392.75;4990624;28;20124;-68
2022/08/25 02:23:13;;;;;;;2.17;1.55;;;;;;;23.07;86.62;101394.59;5002827;28;20080;-67
2022/08/25 02:25:40;;;;;;;1.85;1.50;;;;;;;22.93;87.43;101387.38;5007451;28;20098;-67
2022/08/25 02:28:07;;;;;;;3.22;2.05;;;;;;;22.78;87.83;101393.56;5010848;28;20120;-66
2022/08/25 02:30:33;;;;;;;1.80;1.60;;;;;;;22.78;87.99;101388.06;4990087;28;20094;-69
2022/08/25 02:32:59;;;;;;;2.67;1.60;;;;;;;22.78;88.35;101383.34;5013910;28;20398;-67
2022/08/25 02:35:24;;;;;;;3.95;2.00;;;;;;;22.96;86.76;101383.78;4997550;28;20038;-68
2022/08/25 02:37:51;;;;;;;3.25;1.85;;;;;;;22.88;86.94;101385.09;5000165;28;20029;-67
2022/08/25 02:40:17;;;;;;;4.55;2.22;;;;;;;22.82;87.57;101383.28;5009809;28;20124;-67
2022/08/25 02:42:43;;;;;;;2.25;1.73;;;;;;;22.74;88.00;101379.88;5008358;28;20021;-69
2022/08/25 02:45:09;;;;;;;2.90;2.15;;;;;;;22.57;89.16;101385.69;5010629;28;20064;-67
2022/08/25 02:47:36;;;;;;;5.90;2.30;;;;;;;22.49;89.37;101384.22;4988851;28;20092;-67
2022/08/25 02:50:03;;;;;;;3.00;1.90;;;;;;;22.56;88.74;101371.16;5007701;28;20536;-67
2022/08/25 02:52:29;;;;;;;4.25;1.85;;;;;;;22.58;89.39;101374.28;5009787;28;20055;-67
2022/08/25 02:54:54;;;;;;;6.35;2.08;;;;;;;22.42;89.69;101374.13;5010144;28;20033;-67
2022/08/25 02:57:20;;;;;;;3.53;1.85;;;;;;;22.30;90.52;101370.00;4988316;28;20030;-67
2022/08/25 02:59:47;;;;;;;3.55;1.85;;;;;;;22.31;90.61;101371.56;5007207;28;20478;-67
2022/08/25 03:02:14;;;;;;;4.47;1.80;;;;;;;22.27;90.99;101367.31;5010547;28;20109;-67
2022/08/25 03:04:39;;;;;;;2.88;1.77;;;;;;;22.42;90.31;101368.63;5010260;28;20057;-67
2022/08/25 03:07:05;;;;;;;3.63;1.88;;;;;;;22.49;89.82;101368.53;5009860;28;20022;-67
2022/08/25 03:09:30;;;;;;;2.72;1.70;;;;;;;22.42;90.26;101368.63;4990688;28;20034;-66
2022/08/25 03:11:56;;;;;;;2.63;1.65;;;;;;;22.32;90.57;101364.88;5007072;28;20037;-68
2022/08/25 03:14:21;;;;;;;4.70;1.75;;;;;;;22.19;90.75;101363.91;5010134;28;20038;-67
2022/08/25 03:16:47;;;;;;;2.40;1.58;;;;;;;22.15;91.18;101363.19;4991379;28;20036;-67
2022/08/25 03:19:13;;;;;;;4.72;1.73;;;;;;;21.98;91.43;101367.00;5009960;28;20113;-67
2022/08/25 03:21:38;;;;;;;3.45;2.38;;;;;;;21.96;91.92;101360.34;5004318;28;20486;-67
2022/08/25 03:24:05;;;;;;;3.30;1.80;;;;;;;21.90;92.14;101362.00;5011263;28;20045;-69
2022/08/25 03:29:17;;;;;;;3.17;1.40;;;;;;;21.96;92.20;101365.84;5013727;28;20041;-65
2022/08/25 03:31:45;;;;;;;5.50;2.20;;;;;;;21.89;92.34;101368.69;5007192;28;20056;-65
2022/08/25 03:34:18;;;;;;;3.10;2.28;;;;;;;21.97;92.21;101362.66;5013950;28;20026;-65
2022/08/25 03:36:45;;;;;;;2.88;1.90;;;;;;;21.87;91.89;101360.09;5029272;28;20088;-66
2022/08/25 03:39:12;;;;;;;3.33;1.88;;;;;;;21.86;92.29;101355.78;5010082;28;20118;-65
2022/08/25 03:41:38;;;;;;;3.53;1.63;;;;;;;21.81;92.24;101356.28;5014500;28;20034;-65
2022/08/25 03:44:06;;;;;;;4.28;2.22;;;;;;;21.74;92.31;101348.13;5014768;28;20030;-65
2022/08/25 03:46:47;;;;;;;2.70;2.00;;;;;;;21.71;92.86;101351.69;5012460;28;20041;-65
2022/08/25 03:49:21;;;;;;;2.45;1.80;;;;;;;21.78;92.57;101351.56;5013958;28;20125;-66
2022/08/25 03:51:49;;;;;;;3.65;2.15;;;;;;;21.91;92.54;101349.84;4996922;28;20445;-66
2022/08/25 03:54:18;;;;;;;3.25;1.90;;;;;;;21.84;92.34;101345.25;5009205;28;20764;-66
2022/08/25 03:56:44;;;;;;;3.63;1.90;;;;;;;21.94;92.61;101344.31;5013439;28;20049;-66
2022/08/25 03:59:10;;;;;;;6.05;1.77;;;;;;;22.05;91.61;101344.91;5014425;28;20029;-65
2022/08/25 04:01:37;;;;;;;2.92;2.05;;;;;;;22.00;91.80;101345.41;5003648;28;20461;-66
2022/08/25 04:04:03;;;;;;;2.30;1.85;;;;;;;22.10;91.09;101346.41;5013544;28;20037;-65
2022/08/25 04:06:29;;;;;;;3.75;2.03;;;;;;;21.96;91.69;101346.63;5028737;28;20045;-65
2022/08/25 04:08:57;;;;;;;3.65;1.83;;;;;;;21.92;91.98;101352.19;4996157;28;20033;-66
2022/08/25 04:11:24;;;;;;;2.60;1.90;;;;;;;21.88;92.13;101356.16;5008724;28;20066;-65
2022/08/25 04:13:51;;;;;;;4.07;2.30;;;;;;;21.71;93.02;101352.47;4996377;28;20041;-66
2022/08/25 04:16:20;;;;;;;3.40;2.30;;;;;;;21.65;93.11;101356.06;5012999;28;20802;-66
2022/08/25 04:18:48;;;;;;;3.90;2.10;;;;;;;21.82;92.14;101357.81;5005749;28;20062;-66
2022/08/25 04:21:14;;;;;;;6.22;2.20;;;;;;;21.81;92.37;101357.06;5009441;28;20040;-65
2022/08/25 04:23:42;;;;;;;3.83;2.40;;;;;;;21.86;92.24;101358.53;5014126;28;20037;-66
2022/08/25 04:26:09;;;;;;;4.40;2.50;;;;;;;21.93;91.91;101352.97;5002055;28;20125;-65
2022/08/25 04:28:35;;;;;;;4.55;2.15;;;;;;;21.87;92.10;101360.09;4990991;28;20033;-65
2022/08/25 04:31:04;;;;;;;5.20;2.35;;;;;;;21.72;92.58;101354.00;5006233;28;20088;-65
2022/08/25 04:33:29;;;;;;;3.30;2.10;;;;;;;21.64;92.80;101346.31;5005283;28;20042;-65
2022/08/25 04:35:55;;;;;;;3.65;2.28;;;;;;;21.62;93.03;101360.44;5005771;28;20036;-65
2022/08/25 04:38:20;;;;;;;3.38;2.30;;;;;;;21.63;93.49;101361.97;5013526;28;20466;-66
2022/08/25 04:40:54;;;;;;;6.25;2.13;;;;;;;21.58;94.04;101365.94;5012148;28;20069;-65
2022/08/25 04:43:20;;;;;;;4.60;2.25;;;;;;;21.70;94.24;101366.59;5013545;28;20466;-64
2022/08/25 04:45:45;;;;;;;6.38;2.70;;;;;;;21.86;93.40;101375.00;5006537;28;20096;-65
2022/08/25 04:48:10;;;;;;;3.28;2.00;;;;;;;21.87;93.20;101369.13;5007565;28;20033;-67
2022/08/25 04:50:38;;;;;;;3.78;2.45;;;;;;;21.91;93.40;101371.81;4994977;28;20125;-67
2022/08/25 04:53:04;;;;;;;5.68;2.70;;;;;;;21.96;92.91;101374.84;5013506;28;20038;-67
2022/08/25 04:55:29;;;;;;;10.63;3.53;;;;;;;21.93;93.23;101375.66;5003501;28;20049;-66
2022/08/25 04:57:55;;;;;;;9.60;3.10;;;;;;;21.92;94.25;101374.13;5011718;28;20041;-67
2022/08/25 05:00:20;;;;;;;4.72;2.92;;;;;;;21.82;94.99;101369.56;5001097;28;20516;-67
2022/08/25 05:02:46;;;;;;;5.38;3.00;;;;;;;21.92;94.87;101368.63;5003836;28;20067;-67
2022/08/25 05:05:11;;;;;;;6.45;2.92;;;;;;;22.05;93.80;101363.34;5012979;28;20560;-66
2022/08/25 05:07:37;;;;;;;5.72;3.10;;;;;;;22.17;92.65;101357.28;5012429;28;20030;-67
2022/08/25 05:10:02;;;;;;;7.68;2.90;;;;;;;22.12;93.15;101355.00;5009843;28;20479;-67
2022/08/25 05:12:28;;;;;;;6.53;3.00;;;;;;;22.10;93.09;101360.94;4989262;28;20052;-67
2022/08/25 05:14:53;;;;;;;5.32;3.03;;;;;;;22.08;93.62;101357.03;5004243;28;20077;-67
2022/08/25 05:17:19;;;;;;;5.85;3.65;;;;;;;22.14;93.23;101345.16;5024303;28;20041;-67
2022/08/25 05:19:44;;;;;;;6.25;3.13;;;;;;;22.18;93.31;101361.59;5012504;28;20101;-67
2022/08/25 05:22:10;;;;;;;8.65;3.65;;;;;;;22.11;93.62;101364.44;5012927;28;20033;-67
2022/08/25 05:24:35;;;;;;;7.90;2.90;;;;;;;22.11;94.13;101358.94;4998093;28;20042;-67
2022/08/25 05:27:02;;;;;;;7.00;3.25;;;;;;;22.24;93.44;101357.94;5011129;28;20487;-67
2022/08/25 05:29:28;;;;;;;4.38;2.70;;;;;;;22.14;93.51;101356.13;4991772;28;20033;-67
2022/08/25 05:31:53;;;;;;;10.13;3.58;;;;;;;22.28;93.73;101363.38;4994448;28;20034;-67
2022/08/25 05:34:19;;;;;;;7.57;3.25;;;;;;;22.29;93.13;101360.22;4994739;28;20478;-67
2022/08/25 05:36:45;;;;;;;8.68;3.40;;;;;;;22.13;94.50;101351.06;5011778;28;20033;-67
2022/08/25 05:39:11;;;;;;;5.35;3.13;;;;;;;22.02;95.73;101364.19;4995034;28;20113;-68
2022/08/25 05:41:37;;;;;;;7.07;3.00;;;;;;;22.10;95.16;101357.41;4992692;28;20106;-67
2022/08/25 05:44:03;;;;;;;6.25;3.15;;;;;;;22.28;94.26;101364.16;4986810;28;20025;-66
2022/08/25 05:46:29;;;;;;;6.82;3.55;;;;;;;22.33;94.04;101354.66;5010060;28;20034;-67
2022/08/25 05:48:54;;;;;;;7.68;3.38;;;;;;;22.38;93.49;101363.19;4994587;28;20109;-67
2022/08/25 05:51:20;;;;;;;5.75;3.25;;;;;;;22.37;93.10;101360.88;4994710;28;20121;-66
2022/08/25 05:53:48;;;;;;;11.32;3.70;;;;;;;22.36;93.38;101365.59;4995911;28;20042;-67
2022/08/25 05:56:14;;;;;;;7.28;3.10;;;;;;;22.36;93.29;101365.59;4991906;28;20041;-67
2022/08/25 05:58:41;;;;;;;4.45;2.83;;;;;;;22.40;93.22;101371.00;4989513;28;20922;-66
2022/08/25 06:03:52;;;;;;;8.35;4.10;;;;;;;22.46;93.70;101377.59;4992655;28;20453;-67
2022/08/25 06:06:18;;;;;;;8.35;3.70;;;;;;;22.36;94.13;101373.03;4991827;28;20041;-65
2022/08/25 06:08:44;;;;;;;7.40;3.25;;;;;;;22.33;94.48;101373.88;4994141;28;20167;-66
2022/08/25 06:11:11;;;;;;;6.72;3.33;;;;;;;22.34;95.32;101367.19;5011788;28;20171;-66
2022/08/25 06:13:38;;;;;;;7.47;3.13;;;;;;;22.37;95.33;101378.13;5011472;28;20068;-65
2022/08/25 06:16:03;;;;;;;9.18;3.97;;;;;;;22.49;94.71;101367.75;5011220;28;20029;-65
2022/08/25 06:18:29;;;;;;;7.78;3.70;;;;;;;22.59;94.46;101367.56;4993893;28;20390;-66
2022/08/25 06:20:54;;;;;;;7.20;3.53;;;;;;;22.52;94.80;101364.94;4992365;28;20410;-66
2022/08/25 06:23:20;;;;;;;6.13;3.50;;;;;;;22.67;93.65;101359.97;4998252;28;20029;-67
2022/08/25 06:25:50;;;;;;;7.43;3.55;;;;;;;22.59;93.90;101356.59;5009395;28;20042;-66
2022/08/25 06:28:16;;;;;;;7.45;3.70;;;;;;;22.71;93.88;101353.25;4993532;28;20045;-68
2022/08/25 06:30:41;;;;;;;6.78;3.60;;;;;;;22.73;94.03;101345.34;5002125;28;20125;-66
2022/08/25 06:33:07;;;;;;;7.28;3.63;;;;;;;22.82;93.12;101353.81;4993882;28;20021;-66
2022/08/25 06:35:32;;;;;;;6.15;3.40;;;;;;;22.86;93.44;101360.00;5011308;28;20029;-67
2022/08/25 06:37:58;;;;;;;8.65;4.10;;;;;;;22.87;93.19;101358.84;5002295;28;20044;-66
2022/08/25 06:40:24;;;;;;;6.88;3.40;;;;;;;22.89;92.52;101361.94;4991561;28;20030;-65
2022/08/25 06:42:50;;;;;;;6.13;3.47;;;;;;;22.88;93.29;101359.63;4991738;28;20359;-65
2022/08/25 06:45:17;;;;;;;5.55;3.53;;;;;;;22.79;92.60;101353.88;4973171;28;20502;-66
2022/08/25 06:47:43;;;;;;;7.85;3.65;;;;;;;22.73;93.09;101356.34;5009505;28;20076;-67
2022/08/25 06:50:09;;;;;;;6.03;2.97;;;;;;;22.85;93.15;101363.97;5010498;28;20062;-67
2022/08/25 06:52:35;;;;;;;6.97;3.45;;;;;;;22.90;92.79;101357.22;5008485;28;20034;-66
2022/08/25 06:55:01;;;;;;;7.93;3.78;;;;;;;22.92;92.64;101358.34;4980326;28;20030;-66
2022/08/25 06:57:26;;;;;;;7.07;3.75;;;;;;;22.86;92.59;101357.28;5008542;28;20038;-65
2022/08/25 06:59:52;;;;;;;8.25;3.40;;;;;;;22.89;92.75;101364.69;5010409;28;20030;-65
2022/08/25 07:02:19;;;;;;;7.65;3.72;;;;;;;22.92;92.55;101361.09;5009938;28;20076;-66
2022/08/25 07:04:45;;;;;;;6.15;3.25;;;;;;;22.94;92.46;101368.91;5011173;28;20034;-65
2022/08/25 07:07:10;;;;;;;7.88;3.58;;;;;;;22.96;92.64;101372.00;5006957;28;20061;-66
2022/08/25 07:09:36;;;;;;;9.30;4.03;;;;;;;23.00;92.34;101373.50;5009271;28;20041;-65
2022/08/25 07:12:03;;;;;;;8.02;3.33;;;;;;;22.97;91.99;101368.84;5010905;28;20022;-66
2022/08/25 07:14:28;;;;;;;10.10;3.25;;;;;;;23.01;91.85;101374.28;5011283;28;20065;-65
2022/08/25 07:16:54;;;;;;;5.60;2.97;;;;;;;23.04;91.98;101381.66;4993378;28;20058;-66
2022/08/25 07:19:19;;;;;;;7.57;3.80;;;;;;;23.03;91.66;101380.91;4973944;28;20034;-66
2022/08/25 07:21:45;;;;;;;5.75;3.20;;;;;;;23.03;91.95;101382.88;4976667;28;20026;-65
2022/08/25 07:24:12;;;;;;;6.88;3.15;;;;;;;23.09;91.47;101376.44;5009542;28;20049;-66
2022/08/25 07:26:41;;;;;;;6.88;3.33;;;;;;;23.00;92.17;101370.75;4990218;28;20038;-66
2022/08/25 07:29:19;;;;;;;7.07;3.63;;;;;;;22.89;92.49;101374.91;4989185;28;20379;-66
2022/08/25 07:31:45;;;;;;;5.50;2.78;;;;;;;23.02;92.55;101373.06;5002210;28;20036;-65
2022/08/25 07:36:55;;;;;;;5.80;2.85;;;;;;;23.15;92.26;101379.50;5010504;28;20034;-66
2022/08/25 07:39:22;;;;;;;6.53;3.25;;;;;;;23.27;91.23;101376.88;4988864;28;20042;-65
2022/08/25 07:41:47;;;;;;;5.75;2.95;;;;;;;23.20;91.76;101379.78;4990851;28;20034;-65
2022/08/25 07:44:13;;;;;;;6.40;3.28;;;;;;;23.21;91.56;101381.31;5012404;28;20041;-65
2022/08/25 07:46:39;;;;;;;5.05;2.95;;;;;;;23.18;91.73;101378.66;5008444;28;20053;-67
2022/08/25 07:49:06;;;;;;;5.38;3.15;;;;;;;23.28;91.83;101383.16;5010463;28;20026;-65
2022/08/25 07:51:31;;;;;;;6.25;3.55;;;;;;;23.20;91.72;101379.78;5009383;28;20386;-65
2022/08/25 07:53:57;;;;;;;6.85;3.13;;;;;;;23.26;92.21;101380.06;5010527;28;20033;-65
2022/08/25 07:56:22;;;;;;;7.07;3.10;;;;;;;23.34;92.15;101387.00;5010168;28;20057;-66
2022/08/25 07:58:48;;;;;;;4.88;2.85;;;;;;;23.55;90.91;101381.06;5001692;28;20379;-65
2022/08/25 08:01:19;;;;;;;7.55;3.88;;;;;;;23.50;91.03;101387.03;5000339;28;20061;-65
2022/08/25 08:03:45;;;;;;;5.32;3.05;;;;;;;23.49;91.21;101384.72;5008168;28;20075;-65
2022/08/25 08:06:11;;;;;;;5.53;3.28;;;;;;;23.51;90.39;101385.88;5008993;28;20180;-65
2022/08/25 08:08:38;;;;;;;6.82;3.17;;;;;;;23.45;90.67;101379.31;5007124;28;20486;-66
2022/08/25 08:11:04;;;;;;;5.78;3.20;;;;;;;23.44;91.07;101383.25;4994612;28;20041;-65
2022/08/25 08:13:32;;;;;;;9.40;3.92;;;;;;;23.54;91.21;101381.50;5014440;28;20038;-65
2022/08/25 08:15:58;;;;;;;7.03;3.50;;;;;;;23.63;91.12;101379.72;5011663;28;20052;-66
2022/08/25 08:18:23;;;;;;;6.03;3.22;;;;;;;23.64;90.82;101381.25;5002678;28;20029;-67
2022/08/25 08:20:48;;;;;;;7.00;3.63;;;;;;;23.52;91.00;101373.66;5013431;28;20038;-65
2022/08/25 08:23:15;;;;;;;9.52;3.88;;;;;;;23.56;91.51;101379.06;5014027;28;20562;-65
2022/08/25 08:25:41;;;;;;;5.28;3.10;;;;;;;23.68;91.09;101370.94;5005311;28;20045;-66
2022/08/25 08:28:07;;;;;;;6.68;3.50;;;;;;;23.70;90.29;101374.03;4993749;28;20113;-65
2022/08/25 08:30:32;;;;;;;9.00;3.28;;;;;;;23.70;90.97;101379.56;5003152;28;20033;-66
2022/08/25 08:33:02;;;;;;;8.80;3.47;;;;;;;23.87;90.94;101374.84;4998102;28;20040;-65
2022/08/25 08:35:28;;;;;;;6.57;3.15;;;;;;;23.88;90.38;101376.41;5014956;28;20034;-67
2022/08/25 08:37:53;;;;;;;7.13;3.58;;;;;;;23.83;90.13;101374.94;5004113;28;20308;-65
2022/08/25 08:40:19;;;;;;;6.57;3.47;;;;;;;23.82;89.77;101364.34;5011110;28;20066;-65
2022/08/25 08:43:10;;;;;;;11.43;3.80;;;;;;;23.88;89.91;101368.94;5012946;28;20037;-66
2022/08/25 08:45:50;;;;;;;11.00;3.33;;;;;;;23.92;89.81;101371.59;5011333;28;20069;-65
2022/08/25 08:48:43;;;;;;;9.85;3.63;;;;;;;24.01;89.67;101380.81;4995184;28;20038;-67
2022/08/25 08:51:23;;;;;;;9.15;3.45;;;;;;;23.99;89.43;101376.94;5009441;28;20510;-67
2022/08/25 08:54:13;;;;;;;8.23;3.97;;;;;;;23.85;89.52;101357.97;5007285;28;20030;-66
2022/08/25 08:56:42;;;;;;;8.77;3.58;;;;;;;24.04;89.73;101371.72;4992409;28;20125;-66
2022/08/25 08:59:13;;;;;;;6.72;3.33;;;;;;;24.33;89.17;101371.78;4993717;28;20095;-65
2022/08/25 09:01:58;;;;;;;8.23;3.63;;;;;;;24.69;87.89;101366.94;4993624;28;20120;-65
2022/08/25 09:04:33;;;;;;;13.52;3.78;;;;;;;25.00;85.14;101362.59;4993877;28;20061;-65
2022/08/25 09:07:09;;;;;;;7.82;3.25;;;;;;;25.40;83.39;101365.03;4997607;28;20092;-66
2022/08/25 09:09:36;;;;;;;5.55;3.20;;;;;;;25.53;82.05;101363.09;4995002;28;20042;-65
2022/08/25 09:12:26;;;;;;;5.35;2.95;;;;;;;26.13;80.74;101355.72;4999789;28;20056;-66
2022/08/25 09:15:10;;;;;;;5.03;3.10;;;;;;;26.24;78.88;101361.66;5005863;28;20040;-65
2022/08/25 09:17:48;;;;;;;5.25;3.38;;;;;;;26.56;77.46;101366.88;5009757;28;20041;-65
2022/08/25 09:20:37;;;;;;;7.75;2.60;;;;;;;26.62;76.35;101349.28;4995361;28;20136;-65
2022/08/25 09:23:26;;;;;;;4.70;2.92;;;;;;;26.60;76.01;101348.94;5009604;28;20430;-65
2022/08/25 09:26:20;;;;;;;4.63;2.90;;;;;;;26.76;76.12;101362.63;4990705;28;20065;-65
2022/08/25 09:28:49;;;;;;;5.15;3.05;;;;;;;26.85;74.25;101347.34;4992504;28;20045;-65
2022/08/25 09:31:20;;;;;;;4.38;2.40;;;;;;;26.93;74.14;101340.31;4999392;28;20030;-65
2022/08/25 09:33:46;;;;;;;3.15;2.17;;;;;;;27.04;73.77;101337.97;5012400;28;20552;-65
2022/08/25 09:36:12;;;;;;;8.30;2.53;;;;;;;27.34;73.79;101331.69;5027404;28;20072;-65
2022/08/25 09:38:38;;;;;;;3.72;2.40;;;;;;;27.54;72.29;101332.13;5012565;28;20046;-67
2022/08/25 09:41:04;;;;;;;5.50;2.47;;;;;;;27.74;71.35;101329.72;5008901;28;20041;-66
2022/08/25 09:43:36;;;;;;;3.58;2.45;;;;;;;28.05;70.17;101327.69;4994610;28;20077;-66
2022/08/25 09:46:04;;;;;;;6.38;2.03;;;;;;;28.48;69.41;101323.91;5011581;28;20033;-66
2022/08/25 09:48:44;;;;;;;3.58;2.15;;;;;;;28.86;67.96;101326.25;5010466;28;20532;-66
2022/08/25 09:51:09;;;;;;;2.42;1.88;;;;;;;29.14;66.08;101325.75;5012132;28;20129;-66
2022/08/25 09:53:36;;;;;;;3.90;2.38;;;;;;;29.05;64.42;101311.09;5004756;28;20105;-66
2022/08/25 09:56:05;;;;;;;3.30;1.98;;;;;;;29.34;63.68;101319.69;5006725;28;20471;-66
2022/08/25 09:58:31;;;;;;;2.78;1.35;;;;;;;29.57;62.32;101313.44;5011472;28;20046;-67
2022/08/25 10:01:04;;;;;;;2.28;1.50;;;;;;;29.87;61.54;101317.16;5011966;28;20042;-66
2022/08/25 10:03:30;;;;;;;2.05;1.58;;;;;;;29.98;60.59;101314.66;5003123;28;20085;-65
2022/08/25 10:06:10;;;;;;;2.22;1.40;;;;;;;30.03;60.68;101306.44;5011089;28;20383;-66
2022/08/25 10:08:38;;;;;;;6.30;1.30;;;;;;;30.27;59.12;101298.09;5012398;28;20474;-66
2022/08/25 10:11:08;;;;;;;2.90;1.30;;;;;;;30.54;59.63;101305.47;5004801;28;20030;-66
2022/08/25 10:13:39;;;;;;;3.40;1.30;;;;;;;30.73;57.89;101304.81;4995392;28;20463;-67
2022/08/25 10:16:23;;;;;;;;;;;;;;;30.51;56.46;101301.59;4995282;28;20126;-67
2022/08/25 10:19:22;;;;;;;2.53;1.15;;;;;;;30.14;57.41;101289.97;5007493;28;20301;-66
2022/08/25 10:22:11;;;;;;;2.67;1.00;;;;;;;29.76;58.29;101287.13;4995663;28;20501;-66
2022/08/25 10:24:38;;;;;;;3.05;1.20;;;;;;;29.52;60.50;101288.31;5004186;28;20033;-67
2022/08/25 10:27:17;;;;;;;1.20;0.90;;;;;;;29.40;61.20;101292.84;5014901;28;20510;-67
2022/08/25 10:30:01;;;;;;;2.13;1.20;;;;;;;29.26;60.72;101283.16;4997091;28;20034;-67
2022/08/25 10:32:45;;;;;;;1.65;1.27;;;;;;;29.18;61.19;101283.97;5000996;28;20061;-66
2022/08/25 10:35:16;;;;;;;1.35;1.20;;;;;;;29.00;61.78;101272.88;4987312;28;20029;-66
2022/08/25 10:38:02;;;;;;;1.75;1.00;;;;;;;28.99;60.77;101271.34;5019608;28;20030;-67
2022/08/25 10:40:39;;;;;;;3.35;1.40;;;;;;;28.86;61.49;101273.53;5018189;28;20026;-66
2022/08/25 10:43:18;;;;;;;1.50;1.08;;;;;;;28.92;62.41;101268.91;4998316;28;20038;-67
2022/08/25 10:46:12;;;;;;;3.53;1.20;;;;;;;28.79;62.81;101266.28;4994551;28;20494;-67
2022/08/25 10:49:15;;;;;;;1.40;1.30;;;;;;;29.05;61.74;101253.59;5043849;23;20057;-68
2022/08/25 10:52:02;;;;;;;1.50;1.40;;;;;;;29.14;61.10;101250.81;5032920;28;20497;-68
2022/08/25 10:54:39;;;;;;;1.48;1.10;;;;;;;29.60;61.41;101250.63;5028940;28;20095;-68
2022/08/25 10:57:42;;;;;;;1.88;1.20;;;;;;;29.62;59.02;101254.44;5054740;28;20073;-68
2022/08/25 11:00:16;;;;;;;2.35;1.55;;;;;;;29.76;58.42;101251.00;5030873;28;20068;-68
2022/08/25 11:02:44;;;;;;;2.78;1.30;;;;;;;29.84;58.28;101251.44;5031194;28;20076;-68
2022/08/25 11:05:35;;;;;;;1.58;1.25;;;;;;;30.01;56.93;101244.19;5035083;28;20447;-68
2022/08/25 11:08:10;;;;;;;1.67;1.05;;;;;;;30.54;56.17;101238.69;5065099;28;20040;-68
2022/08/25 11:10:43;;;;;;;1.20;1.10;;;;;;;30.78;55.47;101219.88;5052626;28;20052;-68
2022/08/25 11:13:23;;;;;;;2.28;1.30;;;;;;;30.71;54.25;101220.28;5062874;28;20041;-68
2022/08/25 11:16:00;;;;;;;3.77;1.17;;;;;;;30.69;54.85;101220.00;5030230;28;20460;-68
2022/08/25 11:18:30;;;;;;;2.85;1.02;;;;;;;30.87;54.45;101225.41;5033354;28;20532;-68
2022/08/25 11:21:17;;;;;;;4.38;1.48;;;;;;;31.00;53.22;101220.28;5043037;28;20036;-67
2022/08/25 11:24:08;;;;;;;3.72;1.55;;;;;;;31.05;51.85;101216.81;5070684;28;20040;-67
2022/08/25 11:26:36;;;;;;;1.20;1.10;;;;;;;31.09;52.39;101217.38;5049247;28;20097;-68
2022/08/25 11:29:13;;;;;;;3.38;1.27;;;;;;;31.00;51.96;101211.94;5069177;28;20435;-68
2022/08/25 11:31:46;;;;;;;1.65;1.17;;;;;;;31.26;52.42;101218.44;5052552;28;20040;-68
2022/08/25 11:34:14;;;;;;;2.67;1.23;;;;;;;31.50;52.05;101218.28;5059900;28;20086;-67
2022/08/25 11:36:42;;;;;;;4.05;1.40;;;;;;;31.68;51.21;101216.00;5061363;28;20107;-68
2022/08/25 11:39:37;;;;;;;1.65;1.05;;;;;;;31.73;50.02;101208.97;5052188;28;20064;-67
2022/08/25 11:42:11;;;;;;;2.17;1.10;;;;;;;32.16;50.21;101212.78;5031584;28;20140;-68
2022/08/25 11:44:51;;;;;;;2.15;1.10;;;;;;;32.49;49.88;101213.19;5051198;28;20104;-68
2022/08/25 11:47:49;;;;;;;1.38;1.27;;;;;;;32.67;48.33;101205.25;5051828;28;20025;-67